Time;durP1;ratioP1;P1;durP2;ratioP2;P2;SDS_P1;SDS_P2;PMS_P1;PMS_P2;Temp;Humidity;BMP_temperature;BMP_pressure;BME280_temperature;BME280_humidity;BME280_pressure;Samples;Min_cycle;Max_cycle;Signal;HPM_P1;HPM_P2
2021/05/25 00:01:31;;;;;;;11.57;7.28;;;9.20;99.90;;;;;;5072744;28;20502;-83
2021/05/25 00:03:56;;;;;;;11.98;8.05;;;9.20;99.90;;;;;;5071329;28;20032;-83
2021/05/25 00:06:22;;;;;;;14.65;6.90;;;9.20;99.90;;;;;;5072636;28;20028;-83
2021/05/25 00:08:47;;;;;;;10.27;7.43;;;9.20;99.90;;;;;;5072572;28;20115;-83
2021/05/25 00:11:13;;;;;;;12.68;8.40;;;9.20;99.90;;;;;;5072448;28;20472;-83
2021/05/25 00:13:39;;;;;;;13.32;9.15;;;9.20;99.90;;;;;;5071254;28;20032;-83
2021/05/25 00:16:05;;;;;;;12.90;9.35;;;9.20;99.90;;;;;;5075144;28;20476;-83
2021/05/25 00:18:30;;;;;;;12.50;8.00;;;9.20;99.90;;;;;;5076194;28;20029;-83
2021/05/25 00:20:56;;;;;;;13.23;7.82;;;9.20;99.90;;;;;;5076089;28;20039;-83
2021/05/25 00:23:22;;;;;;;9.18;6.93;;;9.20;99.90;;;;;;5075932;28;20458;-83
2021/05/25 00:25:47;;;;;;;10.80;7.25;;;9.10;99.90;;;;;;5075922;28;20027;-83
2021/05/25 00:28:13;;;;;;;13.18;6.65;;;9.10;99.90;;;;;;5075992;28;20035;-83
2021/05/25 00:30:39;;;;;;;14.13;6.90;;;9.10;99.90;;;;;;5075766;28;20029;-83
2021/05/25 00:33:04;;;;;;;12.63;7.18;;;9.00;99.90;;;;;;5075771;28;20362;-83
2021/05/25 00:35:35;;;;;;;9.60;6.90;;;9.00;99.90;;;;;;5075854;28;20499;-83
2021/05/25 00:38:01;;;;;;;9.63;6.45;;;9.00;99.90;;;;;;5075666;28;20518;-83
2021/05/25 00:40:27;;;;;;;10.80;6.55;;;9.00;99.90;;;;;;5075864;28;20035;-84
2021/05/25 00:42:52;;;;;;;12.27;6.72;;;9.00;99.90;;;;;;5074440;28;20059;-83
2021/05/25 00:45:18;;;;;;;11.70;6.95;;;8.90;99.90;;;;;;5075474;28;20024;-83
2021/05/25 00:47:44;;;;;;;9.95;6.57;;;8.90;99.90;;;;;;5075605;28;20067;-83
2021/05/25 00:50:14;;;;;;;8.10;5.70;;;8.90;99.90;;;;;;5075537;28;20041;-83
2021/05/25 00:52:44;;;;;;;;;;;8.80;99.90;;;;;;5074656;28;20113;-83
2021/05/25 00:55:17;;;;;;;11.15;5.75;;;8.70;99.90;;;;;;5075404;28;20292;-82
2021/05/25 00:57:44;;;;;;;8.27;5.70;;;8.70;99.90;;;;;;5075527;28;20050;-83
2021/05/25 01:00:10;;;;;;;8.43;5.32;;;8.60;99.90;;;;;;5075254;28;20047;-83
2021/05/25 01:02:37;;;;;;;9.15;5.75;;;8.60;99.90;;;;;;5075227;28;20059;-83
2021/05/25 01:05:04;;;;;;;9.10;5.30;;;8.60;99.90;;;;;;5075197;28;20028;-83
2021/05/25 01:07:29;;;;;;;7.03;5.15;;;8.50;99.90;;;;;;5075239;28;20028;-83
2021/05/25 01:09:57;;;;;;;8.23;4.75;;;8.50;99.90;;;;;;5073860;28;20032;-83
2021/05/25 01:12:26;;;;;;;9.68;4.68;;;8.50;99.90;;;;;;5075085;28;20107;-83
2021/05/25 01:14:56;;;;;;;10.30;4.60;;;8.50;99.90;;;;;;5075044;28;20464;-83
2021/05/25 01:17:21;;;;;;;6.65;4.70;;;8.40;99.90;;;;;;5074847;28;20035;-83
2021/05/25 01:19:47;;;;;;;8.10;4.30;;;8.40;99.90;;;;;;5075122;28;20021;-83
2021/05/25 01:22:12;;;;;;;6.57;4.28;;;8.40;99.90;;;;;;5075026;28;20025;-83
2021/05/25 01:24:38;;;;;;;6.70;4.05;;;8.40;99.90;;;;;;5075957;28;20029;-83
2021/05/25 01:27:06;;;;;;;5.43;3.40;;;8.30;99.90;;;;;;5073938;28;20052;-83
2021/05/25 01:29:33;;;;;;;7.45;3.67;;;8.30;99.90;;;;;;5074933;28;20078;-84
2021/05/25 01:31:58;;;;;;;6.35;3.92;;;8.30;99.90;;;;;;5074633;28;20029;-83
2021/05/25 01:34:24;;;;;;;7.57;4.20;;;8.20;99.90;;;;;;5074671;28;20016;-83
2021/05/25 01:36:49;;;;;;;4.28;3.33;;;8.20;99.90;;;;;;5074692;28;20162;-83
2021/05/25 01:39:15;;;;;;;8.57;3.60;;;8.20;99.90;;;;;;5074388;28;20097;-83
2021/05/25 01:41:41;;;;;;;5.40;3.30;;;8.10;99.90;;;;;;5074656;28;20104;-83
2021/05/25 01:44:07;;;;;;;4.85;3.20;;;8.10;99.90;;;;;;5074481;28;20415;-83
2021/05/25 01:46:33;;;;;;;4.78;2.65;;;8.00;99.90;;;;;;5074352;28;20028;-83
2021/05/25 01:48:58;;;;;;;7.35;3.40;;;8.00;99.90;;;;;;5074468;28;20020;-83
2021/05/25 01:51:24;;;;;;;7.82;3.72;;;8.00;99.90;;;;;;5074278;28;20121;-83
2021/05/25 01:53:49;;;;;;;7.60;3.40;;;8.00;99.90;;;;;;5074240;28;20074;-82
2021/05/25 01:56:16;;;;;;;7.55;3.40;;;8.00;99.90;;;;;;5073022;28;20165;-82
2021/05/25 01:58:42;;;;;;;5.85;3.55;;;7.90;99.90;;;;;;5073036;28;20392;-83
2021/05/25 02:01:10;;;;;;;6.78;3.35;;;7.90;99.90;;;;;;5074115;28;20031;-83
2021/05/25 02:03:38;;;;;;;9.25;3.58;;;7.90;99.90;;;;;;5073982;28;20078;-83
2021/05/25 02:06:05;;;;;;;7.88;3.70;;;7.90;99.90;;;;;;5072738;28;20111;-83
2021/05/25 02:08:31;;;;;;;7.85;3.53;;;7.80;99.90;;;;;;5074142;28;20391;-83
2021/05/25 02:10:59;;;;;;;6.18;3.33;;;7.80;99.90;;;;;;5074054;28;20020;-83
2021/05/25 02:13:32;;;;;;;7.55;3.58;;;7.80;99.90;;;;;;5073972;28;20020;-83
2021/05/25 02:16:01;;;;;;;8.30;3.22;;;7.80;99.90;;;;;;5073781;28;20070;-83
2021/05/25 02:18:31;;;;;;;6.05;3.25;;;7.70;99.90;;;;;;5073768;28;20095;-83
2021/05/25 02:20:57;;;;;;;;;;;7.70;99.90;;;;;;5073265;28;20032;-83
2021/05/25 02:23:23;;;;;;;6.75;3.70;;;7.60;99.90;;;;;;5073678;28;19904;-83
2021/05/25 02:25:49;;;;;;;5.68;3.53;;;7.50;99.90;;;;;;5073587;28;20377;-83
2021/05/25 02:28:15;;;;;;;7.85;3.88;;;7.50;99.90;;;;;;5073549;28;20028;-83
2021/05/25 02:30:41;;;;;;;7.60;4.03;;;7.60;99.90;;;;;;5073564;28;20158;-83
2021/05/25 02:33:09;;;;;;;7.53;3.30;;;7.50;99.90;;;;;;5073425;28;20023;-83
2021/05/25 02:35:36;;;;;;;7.25;3.70;;;7.50;99.90;;;;;;5073487;28;20358;-83
2021/05/25 02:38:03;;;;;;;5.57;3.67;;;7.50;99.90;;;;;;5073202;28;20401;-83
2021/05/25 02:40:30;;;;;;;6.28;3.50;;;7.50;99.90;;;;;;5072193;28;20480;-83
2021/05/25 02:42:56;;;;;;;5.38;3.20;;;7.50;99.90;;;;;;5073439;28;20025;-83
2021/05/25 02:45:22;;;;;;;7.90;3.72;;;7.40;99.90;;;;;;5072082;28;20038;-83
2021/05/25 02:47:48;;;;;;;7.05;3.30;;;7.40;99.90;;;;;;5073230;28;20027;-83
2021/05/25 02:50:15;;;;;;;8.18;3.53;;;7.40;99.90;;;;;;5073385;28;20485;-83
2021/05/25 02:52:42;;;;;;;8.15;3.65;;;7.40;99.90;;;;;;5071923;28;20024;-83
2021/05/25 02:55:13;;;;;;;7.70;3.15;;;7.40;99.90;;;;;;5073165;28;20024;-83
2021/05/25 02:57:40;;;;;;;8.48;3.35;;;7.40;99.90;;;;;;5073306;28;20033;-83
2021/05/25 03:00:08;;;;;;;6.65;3.13;;;7.40;99.90;;;;;;5073358;28;20492;-82
2021/05/25 03:02:34;;;;;;;7.38;3.30;;;7.40;99.90;;;;;;5073259;28;20025;-83
2021/05/25 03:05:00;;;;;;;9.93;3.83;;;7.30;99.90;;;;;;5073097;28;20032;-83
2021/05/25 03:07:25;;;;;;;8.60;3.70;;;7.30;99.90;;;;;;5066300;28;20071;-85
2021/05/25 03:09:51;;;;;;;7.95;4.00;;;7.30;99.90;;;;;;5073085;28;20059;-83
2021/05/25 03:12:16;;;;;;;7.13;4.00;;;7.40;99.90;;;;;;5073214;28;20125;-83
2021/05/25 03:14:42;;;;;;;7.45;3.42;;;7.30;99.90;;;;;;5088527;28;20024;-83
2021/05/25 03:17:07;;;;;;;7.07;3.47;;;7.40;99.90;;;;;;5073072;28;20046;-83
2021/05/25 03:19:33;;;;;;;7.22;3.50;;;7.40;99.90;;;;;;5072938;28;20061;-83
2021/05/25 03:21:59;;;;;;;7.78;3.47;;;7.40;99.90;;;;;;5073132;28;20135;-82
2021/05/25 03:24:24;;;;;;;9.13;3.67;;;7.40;99.90;;;;;;5073036;28;20502;-83
2021/05/25 03:26:50;;;;;;;9.50;4.13;;;7.50;99.90;;;;;;5071611;28;20107;-83
2021/05/25 03:29:15;;;;;;;7.28;3.78;;;7.50;99.90;;;;;;5073171;28;20078;-83
2021/05/25 03:31:41;;;;;;;7.72;3.92;;;7.50;99.90;;;;;;5073092;28;20368;-83
2021/05/25 03:34:07;;;;;;;8.15;3.75;;;7.50;99.90;;;;;;5072820;28;20494;-83
2021/05/25 03:36:32;;;;;;;6.22;3.45;;;7.50;99.90;;;;;;5072814;28;20031;-83
2021/05/25 03:38:58;;;;;;;8.80;4.35;;;7.50;99.90;;;;;;5072719;28;20441;-82
2021/05/25 03:41:24;;;;;;;8.68;3.45;;;7.50;99.90;;;;;;5072939;28;20027;-83
2021/05/25 03:43:49;;;;;;;10.32;3.72;;;7.50;99.90;;;;;;5072868;28;20388;-83
2021/05/25 03:46:15;;;;;;;11.13;4.57;;;7.60;99.90;;;;;;5072882;28;20371;-83
2021/05/25 03:48:40;;;;;;;8.82;4.18;;;7.60;99.90;;;;;;5072806;28;20024;-83
2021/05/25 03:51:06;;;;;;;7.63;3.65;;;7.60;99.90;;;;;;5074306;28;20115;-82
2021/05/25 03:53:31;;;;;;;8.07;4.05;;;7.70;99.90;;;;;;5076210;28;20031;-83
2021/05/25 03:58:51;;;;;;;7.45;4.68;;;7.80;99.90;;;;;;5075811;28;20035;-83
2021/05/25 04:01:27;;;;;;;8.70;4.88;;;7.90;99.90;;;;;;5076516;28;20391;-83
2021/05/25 04:03:56;;;;;;;8.35;5.13;;;7.90;99.90;;;;;;5075079;28;20027;-83
2021/05/25 04:06:23;;;;;;;10.48;5.65;;;7.90;99.90;;;;;;5076211;28;20585;-83
2021/05/25 04:08:49;;;;;;;8.68;5.43;;;7.90;99.90;;;;;;5076404;28;20119;-83
2021/05/25 04:11:17;;;;;;;12.57;6.30;;;7.90;99.90;;;;;;5076391;28;20028;-83
2021/05/25 04:13:43;;;;;;;8.35;5.35;;;7.90;99.90;;;;;;5091857;28;20031;-74
2021/05/25 04:16:12;;;;;;;10.85;5.75;;;8.00;99.90;;;;;;5091726;28;20143;-74
2021/05/25 04:18:38;;;;;;;12.60;6.18;;;8.00;99.90;;;;;;5076230;28;20130;-74
2021/05/25 04:21:04;;;;;;;8.48;5.95;;;8.00;99.90;;;;;;5076075;28;20024;-74
2021/05/25 04:23:31;;;;;;;13.18;7.32;;;8.00;99.90;;;;;;5075953;28;20056;-74
2021/05/25 04:25:57;;;;;;;11.63;7.00;;;8.10;99.90;;;;;;5074812;28;20029;-74
2021/05/25 04:28:22;;;;;;;8.82;5.88;;;8.00;99.90;;;;;;5076221;28;20032;-74
2021/05/25 04:30:48;;;;;;;11.35;6.82;;;8.00;99.90;;;;;;5076065;28;20085;-75
2021/05/25 04:33:14;;;;;;;9.68;5.90;;;8.00;99.90;;;;;;5075696;28;20025;-75
2021/05/25 04:35:39;;;;;;;10.82;6.25;;;8.00;99.90;;;;;;5075473;28;20407;-74
2021/05/25 04:38:06;;;;;;;10.15;6.60;;;8.00;99.90;;;;;;5075516;28;20369;-75
2021/05/25 04:40:33;;;;;;;8.20;5.43;;;8.10;99.90;;;;;;5075776;28;20039;-75
2021/05/25 04:43:00;;;;;;;13.35;6.32;;;8.10;99.90;;;;;;5075731;28;20090;-75
2021/05/25 04:45:26;;;;;;;9.88;5.82;;;8.10;99.90;;;;;;5075665;28;20021;-74
2021/05/25 04:47:52;;;;;;;8.93;6.05;;;8.10;99.90;;;;;;5075477;28;20032;-75
2021/05/25 04:50:19;;;;;;;9.48;5.53;;;8.10;99.90;;;;;;5075469;28;20056;-74
2021/05/25 04:52:45;;;;;;;11.15;5.47;;;8.10;99.90;;;;;;5075506;28;20031;-75
2021/05/25 04:55:14;;;;;;;8.32;5.40;;;8.10;99.90;;;;;;5069186;28;20036;-74
2021/05/25 04:57:41;;;;;;;5.95;4.50;;;8.00;99.90;;;;;;5070371;28;20028;-75
2021/05/25 05:00:10;;;;;;;6.97;5.30;;;8.00;99.90;;;;;;5074287;28;20078;-75
2021/05/25 05:02:36;;;;;;;6.82;4.88;;;8.00;99.90;;;;;;5073392;28;20400;-75
2021/05/25 05:05:03;;;;;;;13.93;6.40;;;8.00;99.90;;;;;;5074738;28;20035;-74
2021/05/25 05:07:29;;;;;;;7.20;5.13;;;8.00;99.90;;;;;;5075086;28;20410;-75
2021/05/25 05:09:54;;;;;;;7.70;5.00;;;8.00;99.90;;;;;;5075217;28;20067;-75
2021/05/25 05:12:20;;;;;;;5.65;4.53;;;8.10;99.90;;;;;;5075236;28;20028;-75
2021/05/25 05:14:45;;;;;;;8.10;6.22;;;8.10;99.90;;;;;;5075106;28;20025;-75
2021/05/25 05:17:11;;;;;;;11.15;7.05;;;8.20;99.90;;;;;;5074892;28;20028;-75
2021/05/25 05:19:36;;;;;;;8.48;6.35;;;8.20;99.90;;;;;;5074198;28;20021;-75
2021/05/25 05:22:02;;;;;;;12.93;7.45;;;8.20;99.90;;;;;;5074516;28;20104;-75
2021/05/25 05:24:28;;;;;;;11.20;7.72;;;8.20;99.90;;;;;;5074479;28;20039;-75
2021/05/25 05:26:53;;;;;;;10.63;7.65;;;8.20;99.90;;;;;;5073112;28;20447;-75
2021/05/25 05:29:19;;;;;;;10.57;8.10;;;8.20;99.90;;;;;;5074041;28;20472;-75
2021/05/25 05:31:45;;;;;;;12.18;8.95;;;8.30;99.90;;;;;;5073060;28;20563;-75
2021/05/25 05:34:11;;;;;;;12.20;8.32;;;8.40;99.90;;;;;;5072344;28;20103;-75
2021/05/25 05:36:37;;;;;;;11.60;8.88;;;8.50;99.90;;;;;;5073967;28;20016;-75
2021/05/25 05:39:04;;;;;;;12.88;10.15;;;8.50;99.90;;;;;;5072827;28;20035;-75
2021/05/25 05:41:30;;;;;;;13.25;9.27;;;8.60;99.90;;;;;;5074264;28;20061;-75
2021/05/25 05:43:55;;;;;;;11.32;9.35;;;8.60;99.90;;;;;;5073791;28;20107;-75
2021/05/25 05:46:21;;;;;;;13.57;11.07;;;8.60;99.90;;;;;;5073900;28;20029;-75
2021/05/25 05:48:46;;;;;;;13.38;11.10;;;8.70;99.90;;;;;;5074037;28;20024;-75
2021/05/25 05:51:12;;;;;;;16.38;11.45;;;8.80;99.90;;;;;;5072290;28;20456;-77
2021/05/25 05:53:38;;;;;;;15.35;11.93;;;8.80;99.90;;;;;;5073878;28;20025;-76
2021/05/25 05:56:04;;;;;;;13.05;11.55;;;8.90;99.90;;;;;;5089814;28;20082;-77
2021/05/25 05:58:29;;;;;;;16.70;13.02;;;8.90;99.90;;;;;;5072570;28;20043;-74
2021/05/25 06:00:55;;;;;;;14.40;12.85;;;9.00;99.90;;;;;;5073741;28;20020;-73
2021/05/25 06:03:21;;;;;;;14.27;12.38;;;9.10;99.90;;;;;;5072480;28;20025;-73
2021/05/25 06:05:46;;;;;;;14.10;12.38;;;9.10;99.90;;;;;;5073647;28;20074;-73
2021/05/25 06:08:13;;;;;;;16.55;14.43;;;9.10;99.90;;;;;;5073332;28;20012;-73
2021/05/25 06:10:40;;;;;;;21.92;15.13;;;9.10;99.90;;;;;;5073277;28;20365;-74
2021/05/25 06:13:06;;;;;;;17.90;15.25;;;9.10;99.90;;;;;;5072843;28;20008;-73
2021/05/25 06:15:33;;;;;;;15.60;13.20;;;9.10;99.90;;;;;;5073414;28;20025;-73
2021/05/25 06:17:59;;;;;;;14.40;12.82;;;9.10;99.90;;;;;;5072919;28;20542;-73
2021/05/25 06:20:25;;;;;;;17.13;13.40;;;9.10;99.90;;;;;;5073042;28;20040;-73
2021/05/25 06:22:51;;;;;;;20.67;13.90;;;9.00;99.90;;;;;;5088477;28;20111;-73
2021/05/25 06:25:17;;;;;;;15.45;13.73;;;9.20;99.90;;;;;;5072872;28;20103;-73
2021/05/25 06:27:43;;;;;;;15.18;13.38;;;9.20;99.90;;;;;;5072784;28;20582;-73
2021/05/25 06:30:10;;;;;;;14.65;13.15;;;9.30;99.90;;;;;;5072980;28;20397;-75
2021/05/25 06:32:37;;;;;;;15.95;12.88;;;9.40;99.90;;;;;;5072953;28;20020;-73
2021/05/25 06:35:04;;;;;;;14.43;12.93;;;9.40;99.90;;;;;;5072403;28;20032;-73
2021/05/25 06:37:29;;;;;;;15.57;13.82;;;9.40;99.90;;;;;;5072584;28;20103;-73
2021/05/25 06:39:55;;;;;;;13.73;12.27;;;9.40;99.90;;;;;;5069552;28;20155;-73
2021/05/25 06:42:21;;;;;;;15.63;13.60;;;9.40;99.90;;;;;;5076309;28;20379;-73
2021/05/25 06:44:46;;;;;;;15.18;13.57;;;9.40;99.90;;;;;;5071035;28;20029;-73
2021/05/25 06:47:12;;;;;;;16.50;13.50;;;9.50;99.90;;;;;;5072794;28;20024;-73
2021/05/25 06:49:39;;;;;;;14.93;13.15;;;9.60;99.90;;;;;;5072062;28;20028;-73
2021/05/25 06:52:10;;;;;;;15.95;13.98;;;9.60;99.90;;;;;;5071984;28;20036;-73
2021/05/25 06:54:36;;;;;;;14.23;12.75;;;9.60;99.90;;;;;;5073142;28;20491;-73
2021/05/25 06:57:01;;;;;;;15.30;12.57;;;9.60;99.90;;;;;;5071936;28;20031;-73
2021/05/25 06:59:27;;;;;;;13.70;12.30;;;9.60;99.90;;;;;;5072269;28;20082;-73
2021/05/25 07:01:55;;;;;;;14.98;13.43;;;9.70;99.90;;;;;;5071540;28;20118;-73
2021/05/25 07:04:21;;;;;;;13.45;11.82;;;9.80;99.90;;;;;;5072992;28;20522;-73
2021/05/25 07:06:47;;;;;;;13.48;12.07;;;9.80;99.90;;;;;;5071966;28;20029;-73
2021/05/25 07:09:13;;;;;;;12.45;11.15;;;9.90;99.90;;;;;;5072929;28;20033;-73
2021/05/25 07:11:39;;;;;;;11.90;10.60;;;10.00;99.90;;;;;;5073034;28;20024;-73
2021/05/25 07:14:05;;;;;;;11.07;10.07;;;10.00;99.90;;;;;;5071413;28;20024;-73
2021/05/25 07:16:31;;;;;;;12.07;10.80;;;10.00;99.90;;;;;;5072530;28;20052;-73
2021/05/25 07:18:58;;;;;;;12.75;11.45;;;10.00;99.90;;;;;;5071723;28;20055;-73
2021/05/25 07:21:24;;;;;;;11.98;10.77;;;10.00;99.90;;;;;;5071654;28;20397;-72
2021/05/25 07:23:50;;;;;;;12.70;10.75;;;10.00;99.90;;;;;;5071157;28;20029;-73
2021/05/25 07:26:16;;;;;;;12.95;11.07;;;10.10;99.90;;;;;;5076350;28;20479;-73
2021/05/25 07:28:41;;;;;;;11.63;10.50;;;10.30;99.90;;;;;;5075404;28;20036;-73
2021/05/25 07:31:07;;;;;;;12.00;10.68;;;10.40;99.90;;;;;;5076411;28;20036;-72
2021/05/25 07:33:32;;;;;;;11.15;10.07;;;10.50;99.90;;;;;;5076852;28;20028;-73
2021/05/25 07:35:58;;;;;;;11.23;10.05;;;10.50;99.90;;;;;;5076893;28;20024;-73
2021/05/25 07:38:23;;;;;;;10.48;9.40;;;10.50;99.90;;;;;;5076467;28;20589;-72
2021/05/25 07:40:49;;;;;;;13.00;9.65;;;10.60;99.90;;;;;;5076676;28;20104;-72
2021/05/25 07:43:14;;;;;;;11.10;10.05;;;10.70;99.90;;;;;;5076516;28;20083;-72
2021/05/25 07:45:40;;;;;;;11.05;8.73;;;10.70;99.90;;;;;;5076492;28;20028;-72
2021/05/25 07:48:06;;;;;;;8.88;7.55;;;10.80;99.90;;;;;;5076698;28;20020;-72
2021/05/25 07:50:32;;;;;;;11.60;7.60;;;10.90;99.90;;;;;;5075151;28;20036;-73
2021/05/25 07:52:57;;;;;;;11.30;8.13;;;11.00;99.90;;;;;;5076177;28;20024;-72
2021/05/25 07:55:30;;;;;;;8.43;6.13;;;11.10;99.90;;;;;;5076265;28;20031;-72
2021/05/25 07:57:56;;;;;;;7.85;5.55;;;11.40;99.90;;;;;;5074978;28;20021;-73
2021/05/25 08:00:22;;;;;;;7.07;5.75;;;11.40;99.90;;;;;;5075534;28;20035;-73
2021/05/25 08:02:49;;;;;;;6.90;4.82;;;11.30;99.90;;;;;;5076331;28;20036;-73
2021/05/25 08:05:16;;;;;;;6.90;4.20;;;11.30;99.90;;;;;;5076051;28;20142;-73
2021/05/25 08:07:42;;;;;;;6.50;4.18;;;11.40;99.90;;;;;;5075864;28;20492;-73
2021/05/25 08:10:09;;;;;;;6.55;3.60;;;11.40;99.90;;;;;;5075482;28;20025;-73
2021/05/25 08:12:34;;;;;;;5.45;3.05;;;11.40;99.90;;;;;;5076127;28;20040;-73
2021/05/25 08:15:02;;;;;;;5.93;3.13;;;11.40;99.90;;;;;;5076079;28;20029;-73
2021/05/25 08:20:14;;;;;;;4.85;2.88;;;11.60;99.90;;;;;;5076046;28;20357;-73
2021/05/25 08:22:41;;;;;;;9.10;3.85;;;11.70;99.90;;;;;;5076118;28;20024;-73
2021/05/25 08:25:07;;;;;;;7.70;4.10;;;11.60;99.90;;;;;;5074524;28;20077;-73
2021/05/25 08:27:33;;;;;;;6.88;4.00;;;11.70;99.90;;;;;;5074626;28;20020;-73
2021/05/25 08:30:01;;;;;;;6.72;4.20;;;11.70;99.90;;;;;;5074538;28;20111;-73
2021/05/25 08:32:26;;;;;;;6.65;3.80;;;11.90;99.90;;;;;;5075609;28;20029;-73
2021/05/25 08:34:52;;;;;;;9.10;4.15;;;12.00;99.90;;;;;;5075477;28;20028;-73
2021/05/25 08:37:17;;;;;;;5.43;3.60;;;12.00;99.90;;;;;;5075447;28;20031;-73
2021/05/25 08:39:43;;;;;;;7.43;3.97;;;12.00;99.90;;;;;;5075461;28;20063;-73
2021/05/25 08:42:09;;;;;;;6.22;3.97;;;12.10;99.90;;;;;;5075551;28;20032;-73
2021/05/25 08:44:35;;;;;;;6.65;3.72;;;12.20;99.90;;;;;;5075525;28;20060;-74
2021/05/25 08:47:00;;;;;;;6.72;4.28;;;12.30;99.90;;;;;;5073420;28;20032;-73
2021/05/25 08:49:26;;;;;;;6.20;3.03;;;12.30;99.90;;;;;;5074609;28;20070;-73
2021/05/25 08:51:52;;;;;;;11.05;3.22;;;12.20;99.90;;;;;;5073907;28;20467;-74
2021/05/25 08:54:18;;;;;;;7.88;3.25;;;12.10;99.90;;;;;;5073921;28;20021;-75
2021/05/25 08:56:43;;;;;;;5.32;3.33;;;11.90;99.90;;;;;;5075078;28;20020;-74
2021/05/25 08:59:09;;;;;;;6.07;4.30;;;11.70;99.90;;;;;;5073613;28;20031;-74
2021/05/25 09:01:36;;;;;;;6.10;4.65;;;11.30;99.90;;;;;;5062120;28;20576;-73
2021/05/25 09:04:04;;;;;;;3.55;0.70;;;11.10;99.90;;;;;;5052261;28;20020;-74
2021/05/25 09:06:40;;;;;;;2.95;0.70;;;10.70;99.90;;;;;;5074825;28;20032;-74
2021/05/25 09:09:15;;;;;;;2.03;0.55;;;10.20;99.90;;;;;;5073561;28;20548;-74
2021/05/25 09:11:56;;;;;;;3.83;0.50;;;9.80;99.90;;;;;;5074942;28;20437;-74
2021/05/25 09:14:22;;;;;;;1.75;0.38;;;9.60;99.90;;;;;;5074926;28;20040;-75
2021/05/25 09:16:47;;;;;;;1.30;0.40;;;9.60;99.90;;;;;;5074947;28;20123;-75
2021/05/25 09:19:13;;;;;;;1.45;0.77;;;9.60;99.90;;;;;;5074943;28;20027;-75
2021/05/25 09:21:38;;;;;;;1.90;0.60;;;9.60;99.90;;;;;;5073750;28;20035;-74
2021/05/25 09:24:05;;;;;;;2.88;0.85;;;9.60;99.90;;;;;;5071521;28;20025;-75
2021/05/25 09:26:39;;;;;;;1.58;0.70;;;9.60;99.90;;;;;;5071039;28;20492;-74
2021/05/25 09:29:08;;;;;;;1.85;0.60;;;9.70;99.90;;;;;;5074854;28;20035;-76
2021/05/25 09:31:48;;;;;;;1.60;0.52;;;9.80;99.90;;;;;;5074044;28;20060;-75
2021/05/25 09:34:13;;;;;;;;;;;10.00;99.90;;;;;;5071105;28;20074;-74
2021/05/25 09:37:00;;;;;;;2.28;0.90;;;10.10;99.90;;;;;;5074392;28;19905;-74
2021/05/25 09:39:27;;;;;;;3.30;1.23;;;10.20;99.90;;;;;;5073020;28;20064;-74
2021/05/25 09:41:55;;;;;;;2.80;1.30;;;10.30;99.90;;;;;;5074455;28;20086;-74
2021/05/25 09:44:21;;;;;;;4.43;1.90;;;10.40;99.90;;;;;;5073205;28;20032;-74
2021/05/25 09:46:49;;;;;;;3.58;2.15;;;10.50;99.90;;;;;;5074207;28;20503;-74
2021/05/25 09:49:15;;;;;;;6.25;3.83;;;10.60;99.90;;;;;;5072528;28;20480;-74
2021/05/25 09:51:41;;;;;;;7.32;4.40;;;10.70;99.90;;;;;;5074326;28;20048;-74
2021/05/25 09:54:21;;;;;;;10.18;4.65;;;10.80;99.90;;;;;;5074297;28;20395;-75
2021/05/25 09:57:00;;;;;;;8.07;4.90;;;10.80;99.90;;;;;;5072801;28;20483;-74
2021/05/25 09:59:33;;;;;;;9.77;4.32;;;10.80;99.90;;;;;;5072781;28;20027;-74
2021/05/25 10:02:19;;;;;;;10.10;3.75;;;10.80;99.90;;;;;;5073563;28;20594;-74
2021/05/25 10:05:02;;;;;;;9.25;3.65;;;10.80;99.90;;;;;;5071395;28;20104;-74
2021/05/25 10:07:29;;;;;;;10.23;4.40;;;10.90;99.90;;;;;;5071772;28;20365;-74
2021/05/25 10:09:56;;;;;;;9.77;4.70;;;11.40;99.90;;;;;;5073401;28;20077;-74
2021/05/25 10:12:24;;;;;;;6.07;3.40;;;12.40;99.90;;;;;;5071840;28;20017;-74
2021/05/25 10:14:50;;;;;;;6.63;3.10;;;13.60;99.90;;;;;;5072948;28;20008;-75
2021/05/25 10:17:31;;;;;;;6.03;2.92;;;15.00;99.90;;;;;;5070096;28;20032;-75
2021/05/25 10:19:57;;;;;;;5.47;2.67;;;16.20;99.90;;;;;;5070061;28;20016;-74
2021/05/25 10:22:24;;;;;;;8.63;2.58;;;17.30;98.10;;;;;;5072400;28;20403;-75
2021/05/25 10:24:51;;;;;;;6.35;2.83;;;17.60;94.50;;;;;;5073082;28;20445;-75
2021/05/25 10:27:17;;;;;;;8.13;2.50;;;16.70;93.30;;;;;;5072191;28;20086;-77
2021/05/25 10:29:43;;;;;;;6.28;2.70;;;15.80;94.90;;;;;;5073173;28;20125;-78
2021/05/25 10:32:20;;;;;;;7.18;2.45;;;15.60;96.30;;;;;;5073631;28;20476;-75
2021/05/25 10:34:47;;;;;;;7.03;2.97;;;16.20;94.00;;;;;;5073638;28;20387;-75
2021/05/25 10:37:14;;;;;;;6.32;2.90;;;15.80;93.00;;;;;;5073344;28;20020;-74
2021/05/25 10:39:43;;;;;;;6.25;2.33;;;15.20;94.20;;;;;;5068866;28;20047;-75
2021/05/25 10:42:21;;;;;;;6.40;2.92;;;14.60;95.50;;;;;;5049907;28;20036;-74
2021/05/25 10:44:55;;;;;;;5.47;2.22;;;14.30;96.50;;;;;;5073292;28;20480;-74
2021/05/25 10:47:37;;;;;;;10.23;2.55;;;14.30;96.10;;;;;;5073238;28;20502;-75
2021/05/25 10:50:24;;;;;;;7.32;2.10;;;14.10;95.40;;;;;;5071246;28;20036;-75
2021/05/25 10:52:58;;;;;;;5.45;1.58;;;14.30;94.70;;;;;;5071571;28;20448;-75
2021/05/25 10:55:29;;;;;;;4.80;2.13;;;14.20;93.50;;;;;;5044813;28;20690;-75
2021/05/25 10:57:55;;;;;;;6.93;1.83;;;14.40;95.00;;;;;;5053264;28;20090;-75
2021/05/25 11:00:34;;;;;;;6.63;1.70;;;14.40;94.10;;;;;;5068583;28;20501;-75
2021/05/25 11:03:02;;;;;;;6.33;1.70;;;14.40;93.90;;;;;;5071840;28;20075;-75
2021/05/25 11:05:28;;;;;;;4.63;1.60;;;15.00;94.00;;;;;;5071911;28;20463;-75
2021/05/25 11:07:55;;;;;;;4.78;1.10;;;15.60;91.40;;;;;;5069301;28;20029;-75
2021/05/25 11:10:26;;;;;;;3.15;1.40;;;15.30;90.10;;;;;;5072245;28;20097;-75
2021/05/25 11:13:14;;;;;;;4.60;1.50;;;14.70;92.00;;;;;;5076426;28;20025;-75
2021/05/25 11:16:09;;;;;;;6.10;1.20;;;14.30;93.40;;;;;;5070858;28;20021;-75
2021/05/25 11:19:06;;;;;;;4.80;1.00;;;14.00;93.50;;;;;;5065130;28;20031;-74
2021/05/25 11:21:43;;;;;;;5.40;0.93;;;14.20;92.20;;;;;;5058931;28;20036;-74
2021/05/25 11:24:42;;;;;;;5.03;1.00;;;15.30;90.70;;;;;;5072854;28;20021;-74
2021/05/25 11:27:15;;;;;;;3.95;1.10;;;15.70;90.40;;;;;;5083906;28;20020;-74
2021/05/25 11:29:41;;;;;;;2.95;1.05;;;15.90;87.90;;;;;;5092681;28;20085;-74
2021/05/25 11:32:14;;;;;;;4.05;0.85;;;16.40;85.50;;;;;;5092788;28;20445;-74
2021/05/25 11:34:41;;;;;;;3.92;0.85;;;17.00;85.80;;;;;;5091658;28;20028;-74
2021/05/25 11:37:10;;;;;;;5.10;1.25;;;18.00;81.80;;;;;;5076993;28;20073;-74
2021/05/25 11:39:36;;;;;;;5.43;2.10;;;19.30;76.20;;;;;;5071401;28;20044;-75
2021/05/25 11:42:05;;;;;;;4.85;1.00;;;18.80;69.80;;;;;;5072192;28;20388;-75
2021/05/25 11:44:43;;;;;;;4.50;0.80;;;18.20;71.60;;;;;;5069050;28;20082;-75
2021/05/25 11:47:09;;;;;;;3.50;0.90;;;17.50;74.30;;;;;;5072648;28;20039;-75
2021/05/25 11:49:37;;;;;;;3.50;0.80;;;17.40;73.50;;;;;;5068536;28;20058;-75
2021/05/25 11:52:39;;;;;;;4.45;1.52;;;17.20;74.90;;;;;;5067202;28;20060;-75
2021/05/25 11:55:08;;;;;;;4.10;0.60;;;17.10;74.60;;;;;;5066965;28;20369;-75
2021/05/25 11:57:35;;;;;;;4.57;1.27;;;16.60;76.30;;;;;;5076437;28;20028;-75
2021/05/25 12:00:08;;;;;;;4.00;0.82;;;17.20;75.20;;;;;;5080558;28;20535;-75
2021/05/25 12:02:34;;;;;;;1.63;0.52;;;17.00;72.30;;;;;;5072270;28;20025;-75
2021/05/25 12:05:04;;;;;;;1.63;0.40;;;16.40;71.80;;;;;;5068103;28;20025;-75
2021/05/25 12:07:30;;;;;;;6.07;0.60;;;15.80;72.60;;;;;;5068313;28;20422;-75
2021/05/25 12:09:58;;;;;;;2.72;0.40;;;14.90;74.60;;;;;;5069648;28;20047;-75
2021/05/25 12:12:26;;;;;;;3.00;0.50;;;14.10;79.20;;;;;;5074308;28;20032;-74
2021/05/25 12:14:52;;;;;;;4.68;0.50;;;13.50;82.50;;;;;;5075956;28;20472;-74
2021/05/25 12:17:23;;;;;;;3.45;0.40;;;13.10;85.90;;;;;;5075950;28;20024;-74
2021/05/25 12:19:58;;;;;;;1.33;0.30;;;12.60;90.40;;;;;;5074419;28;20028;-74
2021/05/25 12:22:52;;;;;;;2.97;0.60;;;12.10;93.00;;;;;;5068483;28;20066;-74
2021/05/25 12:25:29;;;;;;;3.20;0.63;;;11.60;96.10;;;;;;5063981;28;20383;-75
2021/05/25 12:28:14;;;;;;;2.42;0.50;;;11.40;99.30;;;;;;5072728;28;20021;-74
2021/05/25 12:30:49;;;;;;;2.47;0.50;;;11.30;99.90;;;;;;5078482;28;20063;-75
2021/05/25 12:33:32;;;;;;;3.28;0.75;;;11.40;99.90;;;;;;5067449;28;20028;-74
2021/05/25 12:36:16;;;;;;;3.00;0.57;;;11.70;99.90;;;;;;5064638;28;20020;-75
2021/05/25 12:39:02;;;;;;;1.45;0.50;;;12.20;99.90;;;;;;5071596;28;20499;-75
2021/05/25 12:41:49;;;;;;;3.08;0.60;;;12.50;99.90;;;;;;5055404;28;20033;-74
2021/05/25 12:44:21;;;;;;;0.98;0.47;;;12.60;99.40;;;;;;5055560;28;20484;-75
2021/05/25 12:47:05;;;;;;;5.18;0.68;;;12.70;99.30;;;;;;5051883;28;20584;-75
2021/05/25 12:49:47;;;;;;;4.47;0.63;;;13.10;99.90;;;;;;5051423;28;20025;-75
2021/05/25 12:52:32;;;;;;;3.95;0.80;;;13.40;98.50;;;;;;5056726;28;20052;-74
2021/05/25 12:55:03;;;;;;;3.55;0.98;;;13.30;97.80;;;;;;5074385;28;20384;-74
2021/05/25 12:57:44;;;;;;;5.05;1.27;;;13.10;97.80;;;;;;5059704;28;20028;-74
2021/05/25 13:00:12;;;;;;;4.00;1.02;;;13.00;97.70;;;;;;5068617;28;20017;-75